Time;durP1;ratioP1;P1;durP2;ratioP2;P2;SDS_P1;SDS_P2;PMS_P1;PMS_P2;Temp;Humidity;BMP_temperature;BMP_pressure;BME280_temperature;BME280_humidity;BME280_pressure;Samples;Min_cycle;Max_cycle;Signal;HPM_P1;HPM_P2
2023/02/14 00:03:02;;;;;;;14.88;9.95;;;;;;;;;;10410341;28;20029;-59
2023/02/14 00:08:03;;;;;;;15.77;10.93;;;;;;;;;;10409007;28;20458;-59
2023/02/14 00:13:04;;;;;;;19.42;11.00;;;;;;;;;;10410435;28;20108;-59
2023/02/14 00:18:05;;;;;;;15.65;10.10;;;;;;;;;;10409227;28;20040;-59
2023/02/14 00:23:05;;;;;;;14.40;10.18;;;;;;;;;;10410200;28;20168;-58
2023/02/14 00:28:06;;;;;;;14.30;9.68;;;;;;;;;;10402346;28;20083;-59
2023/02/14 00:33:06;;;;;;;15.50;9.13;;;;;;;;;;10403930;28;20248;-59
2023/02/14 00:38:07;;;;;;;15.02;9.23;;;;;;;;;;10406315;28;20052;-59
2023/02/14 00:43:07;;;;;;;13.07;9.18;;;;;;;;;;10409193;28;20493;-59
2023/02/14 00:48:08;;;;;;;14.15;9.00;;;;;;;;;;10398567;28;20401;-58
2023/02/14 00:53:09;;;;;;;15.25;9.10;;;;;;;;;;10409352;28;20103;-58
2023/02/14 00:58:09;;;;;;;13.45;8.93;;;;;;;;;;10402291;28;20025;-58
2023/02/14 01:03:10;;;;;;;13.75;9.48;;;;;;;;;;10408602;28;20071;-59
2023/02/14 01:08:10;;;;;;;15.93;9.30;;;;;;;;;;10407925;28;20033;-59
2023/02/14 01:13:12;;;;;;;13.43;8.18;;;;;;;;;;10407163;28;20025;-58
2023/02/14 01:18:13;;;;;;;12.07;8.07;;;;;;;;;;10404749;28;20040;-58
2023/02/14 01:23:14;;;;;;;13.15;8.07;;;;;;;;;;10403363;28;20496;-58
2023/02/14 01:28:14;;;;;;;11.55;8.43;;;;;;;;;;10407428;28;20032;-58
2023/02/14 01:33:15;;;;;;;13.00;7.95;;;;;;;;;;10405415;28;20029;-58
2023/02/14 01:38:16;;;;;;;11.07;7.70;;;;;;;;;;10406509;28;20060;-58
2023/02/14 01:43:16;;;;;;;10.73;7.68;;;;;;;;;;10405467;28;20037;-57
2023/02/14 01:48:21;;;;;;;13.13;8.85;;;;;;;;;;10406672;28;20037;-57
2023/02/14 01:53:27;;;;;;;11.18;8.00;;;;;;;;;;10406865;28;20057;-57
2023/02/14 01:58:33;;;;;;;11.43;8.13;;;;;;;;;;10404784;28;20026;-57
2023/02/14 02:03:46;;;;;;;13.05;7.85;;;;;;;;;;10404537;28;20650;-58
2023/02/14 02:09:19;;;;;;;11.90;7.97;;;;;;;;;;10398747;28;20034;-57
2023/02/14 02:14:21;;;;;;;9.85;7.38;;;;;;;;;;10392985;28;20017;-57
2023/02/14 02:19:53;;;;;;;11.35;7.78;;;;;;;;;;10403870;28;20149;-58
2023/02/14 02:24:59;;;;;;;12.82;7.97;;;;;;;;;;10405415;28;20032;-58
2023/02/14 02:30:42;;;;;;;12.27;7.75;;;;;;;;;;10403306;28;20025;-58
2023/02/14 02:36:09;;;;;;;12.00;8.10;;;;;;;;;;10415125;28;20041;-59
2023/02/14 02:41:50;;;;;;;9.68;7.38;;;;;;;;;;10406648;28;20029;-60
2023/02/14 02:47:08;;;;;;;10.35;7.57;;;;;;;;;;10410913;28;20470;-63
2023/02/14 02:58:01;;;;;;;10.10;6.95;;;;;;;;;;10405380;28;20029;-58
2023/02/14 03:08:21;;;;;;;12.18;7.15;;;;;;;;;;10411927;28;20076;-57
2023/02/14 03:13:48;;;;;;;10.25;7.07;;;;;;;;;;10412236;28;20022;-58
2023/02/14 03:19:18;;;;;;;10.68;7.97;;;;;;;;;;10410408;28;20531;-58
2023/02/14 03:24:30;;;;;;;14.63;8.30;;;;;;;;;;10412259;28;20034;-59
2023/02/14 03:30:09;;;;;;;12.27;8.10;;;;;;;;;;10401181;28;20045;-58
2023/02/14 03:35:29;;;;;;;11.07;7.38;;;;;;;;;;10407999;28;20041;-59
2023/02/14 03:40:41;;;;;;;11.73;7.47;;;;;;;;;;10410519;28;20033;-58
2023/02/14 03:45:52;;;;;;;9.02;6.68;;;;;;;;;;10406713;28;20376;-58
2023/02/14 03:50:54;;;;;;;11.02;7.70;;;;;;;;;;10404449;28;20473;-58
2023/02/14 03:56:05;;;;;;;10.32;7.22;;;;;;;;;;10409567;28;20033;-58
2023/02/14 04:01:16;;;;;;;9.55;7.47;;;;;;;;;;10409618;28;20075;-62
2023/02/14 04:06:18;;;;;;;10.23;7.53;;;;;;;;;;10409355;28;20063;-57
2023/02/14 04:11:19;;;;;;;9.85;7.72;;;;;;;;;;10408252;28;20108;-61
2023/02/14 04:16:20;;;;;;;8.25;7.32;;;;;;;;;;10402908;28;20037;-58
2023/02/14 04:21:20;;;;;;;15.20;7.70;;;;;;;;;;10405257;28;20033;-58
2023/02/14 04:26:21;;;;;;;9.93;6.75;;;;;;;;;;10403151;28;20088;-58
2023/02/14 04:31:21;;;;;;;11.00;7.60;;;;;;;;;;10410139;28;20033;-59
2023/02/14 04:36:22;;;;;;;10.23;7.20;;;;;;;;;;10407469;28;20045;-58
2023/02/14 04:41:22;;;;;;;8.63;7.22;;;;;;;;;;10409897;28;20401;-57
2023/02/14 04:46:23;;;;;;;10.75;6.93;;;;;;;;;;10407795;28;20484;-57
2023/02/14 04:51:24;;;;;;;11.35;7.70;;;;;;;;;;10399691;28;20493;-57
2023/02/14 04:56:25;;;;;;;10.00;7.47;;;;;;;;;;10407849;28;20040;-57
2023/02/14 05:01:26;;;;;;;9.98;6.82;;;;;;;;;;10408073;28;20021;-57
2023/02/14 05:06:27;;;;;;;9.20;7.40;;;;;;;;;;10402313;28;20574;-58
2023/02/14 05:11:30;;;;;;;8.65;6.65;;;;;;;;;;10408516;28;20026;-58
2023/02/14 05:16:30;;;;;;;10.70;7.60;;;;;;;;;;10407284;28;20061;-60
2023/02/14 05:21:32;;;;;;;8.90;6.78;;;;;;;;;;10408520;28;20477;-58
2023/02/14 05:26:32;;;;;;;10.35;7.60;;;;;;;;;;10399928;28;20030;-58
2023/02/14 05:31:33;;;;;;;8.80;6.57;;;;;;;;;;10407155;28;20029;-61
2023/02/14 05:36:33;;;;;;;7.57;6.45;;;;;;;;;;10397211;28;20046;-62
2023/02/14 05:41:34;;;;;;;7.18;6.28;;;;;;;;;;10407518;28;20021;-60
2023/02/14 05:46:35;;;;;;;8.80;6.63;;;;;;;;;;10403663;28;20401;-59
2023/02/14 05:51:35;;;;;;;12.68;7.50;;;;;;;;;;10395694;28;20025;-59
2023/02/14 05:56:36;;;;;;;10.20;7.20;;;;;;;;;;10403291;28;20477;-59
2023/02/14 06:01:36;;;;;;;8.55;7.07;;;;;;;;;;10406451;28;20449;-59
2023/02/14 06:06:37;;;;;;;10.82;7.00;;;;;;;;;;10404853;28;20025;-63
2023/02/14 06:11:38;;;;;;;7.97;6.75;;;;;;;;;;10409105;28;20179;-60
2023/02/14 06:16:38;;;;;;;9.82;6.47;;;;;;;;;;10399557;28;20484;-60
2023/02/14 06:21:39;;;;;;;11.13;6.97;;;;;;;;;;10388193;28;20021;-60
2023/02/14 06:26:40;;;;;;;7.03;6.28;;;;;;;;;;10402899;28;20029;-59
2023/02/14 06:31:40;;;;;;;14.73;7.80;;;;;;;;;;10408769;28;20026;-58
2023/02/14 06:36:41;;;;;;;17.70;9.00;;;;;;;;;;10403929;28;20045;-64
2023/02/14 06:41:41;;;;;;;16.60;11.07;;;;;;;;;;10406648;28;20029;-65
2023/02/14 06:46:42;;;;;;;19.88;11.73;;;;;;;;;;10401670;28;20095;-60
2023/02/14 06:51:43;;;;;;;15.35;10.70;;;;;;;;;;10404703;28;20026;-64
2023/02/14 06:56:43;;;;;;;20.45;11.07;;;;;;;;;;10405902;28;20308;-63
2023/02/14 07:01:44;;;;;;;22.65;10.93;;;;;;;;;;10407534;28;20033;-58
2023/02/14 07:06:45;;;;;;;21.98;10.05;;;;;;;;;;10396546;28;20084;-61
2023/02/14 07:11:46;;;;;;;22.25;10.07;;;;;;;;;;10402620;28;20022;-58
2023/02/14 07:16:47;;;;;;;22.02;11.20;;;;;;;;;;10413138;28;20028;-62
2023/02/14 07:21:47;;;;;;;30.33;10.50;;;;;;;;;;10429916;28;20249;-60
2023/02/14 07:26:48;;;;;;;18.83;9.75;;;;;;;;;;10411489;28;20061;-59
2023/02/14 07:31:48;;;;;;;14.45;9.82;;;;;;;;;;10411924;28;20710;-58
2023/02/14 07:36:49;;;;;;;24.10;10.32;;;;;;;;;;10408502;28;20405;-62
2023/02/14 07:41:49;;;;;;;29.70;9.68;;;;;;;;;;10410446;28;20052;-58
2023/02/14 07:46:50;;;;;;;14.85;8.82;;;;;;;;;;10405726;28;20033;-62
2023/02/14 07:51:51;;;;;;;20.13;9.70;;;;;;;;;;10409936;28;20056;-58
2023/02/14 07:56:51;;;;;;;16.70;9.52;;;;;;;;;;10410863;28;20045;-59
2023/02/14 08:01:52;;;;;;;17.95;9.18;;;;;;;;;;10409785;28;20059;-58
2023/02/14 08:06:53;;;;;;;14.95;9.20;;;;;;;;;;10401274;28;20025;-58
2023/02/14 08:17:15;;;;;;;14.38;9.80;;;;;;;;;;10410751;28;20484;-58
2023/02/14 08:22:18;;;;;;;15.88;10.38;;;;;;;;;;10399925;28;20033;-58
2023/02/14 08:27:18;;;;;;;21.35;9.90;;;;;;;;;;10409650;28;20786;-61
2023/02/14 08:32:19;;;;;;;17.23;11.02;;;;;;;;;;10407796;28;20076;-59
2023/02/14 08:37:20;;;;;;;21.08;11.32;;;;;;;;;;10408643;28;20053;-58
2023/02/14 08:42:20;;;;;;;17.25;10.95;;;;;;;;;;10408745;28;20052;-58
2023/02/14 08:47:21;;;;;;;16.15;11.38;;;;;;;;;;10408321;28;20034;-58
2023/02/14 08:52:21;;;;;;;17.52;10.73;;;;;;;;;;10407106;28;20025;-59
2023/02/14 08:57:22;;;;;;;17.13;10.85;;;;;;;;;;10407896;28;20030;-59
2023/02/14 09:02:23;;;;;;;18.05;10.77;;;;;;;;;;10409205;28;20030;-59
2023/02/14 09:07:24;;;;;;;21.52;11.23;;;;;;;;;;10398803;28;20404;-59
2023/02/14 09:12:24;;;;;;;18.58;11.52;;;;;;;;;;10408725;28;20435;-59
2023/02/14 09:17:25;;;;;;;15.70;10.48;;;;;;;;;;10403802;28;20388;-59
2023/02/14 09:22:25;;;;;;;15.80;11.20;;;;;;;;;;10406258;28;20545;-58
2023/02/14 09:27:26;;;;;;;15.85;10.82;;;;;;;;;;10407279;28;20030;-61
2023/02/14 09:32:28;;;;;;;19.50;11.48;;;;;;;;;;10406978;28;20053;-62
2023/02/14 09:42:54;;;;;;;15.02;10.60;;;;;;;;;;10406463;28;20554;-59
2023/02/14 09:48:05;;;;;;;20.38;10.55;;;;;;;;;;10407807;28;20113;-61
2023/02/14 09:53:24;;;;;;;13.55;10.63;;;;;;;;;;10400339;28;20079;-61
2023/02/14 09:58:35;;;;;;;16.75;10.32;;;;;;;;;;10404660;28;20087;-58
2023/02/14 10:04:04;;;;;;;14.55;9.85;;;;;;;;;;10404726;28;20152;-60
2023/02/14 10:09:53;;;;;;;16.00;10.60;;;;;;;;;;10405899;28;20018;-62
2023/02/14 10:14:56;;;;;;;17.95;10.88;;;;;;;;;;10399196;28;20038;-59
2023/02/14 10:20:01;;;;;;;14.43;10.48;;;;;;;;;;10401743;28;20021;-58
2023/02/14 10:25:23;;;;;;;16.90;10.95;;;;;;;;;;10402456;28;20025;-58
2023/02/14 10:30:23;;;;;;;13.07;10.13;;;;;;;;;;10406432;28;20037;-62
2023/02/14 10:35:57;;;;;;;16.42;10.75;;;;;;;;;;10417420;23;20060;-56
2023/02/14 10:41:39;;;;;;;13.43;9.93;;;;;;;;;;10403614;28;20025;-58
2023/02/14 10:46:51;;;;;;;13.88;9.70;;;;;;;;;;10420565;28;20029;-58
2023/02/14 10:52:08;;;;;;;13.52;9.82;;;;;;;;;;10413950;28;20556;-59
2023/02/14 10:57:18;;;;;;;12.18;9.13;;;;;;;;;;10398830;28;20116;-59
2023/02/14 11:02:24;;;;;;;15.40;9.90;;;;;;;;;;10395261;28;20055;-58
2023/02/14 11:07:25;;;;;;;17.98;10.50;;;;;;;;;;10402819;28;20159;-58
2023/02/14 11:12:40;;;;;;;12.85;9.52;;;;;;;;;;10413186;28;20052;-59
2023/02/14 11:17:42;;;;;;;14.63;10.13;;;;;;;;;;10406617;28;20033;-51
2023/02/14 11:22:42;;;;;;;13.30;10.38;;;;;;;;;;10411369;28;20079;-52
2023/02/14 11:27:48;;;;;;;14.85;9.40;;;;;;;;;;10412533;28;20473;-49
2023/02/14 11:32:55;;;;;;;14.07;9.43;;;;;;;;;;10400239;28;20048;-50
2023/02/14 11:37:57;;;;;;;11.55;8.25;;;;;;;;;;10401066;28;20051;-55
2023/02/14 11:43:19;;;;;;;15.95;10.13;;;;;;;;;;10403889;28;20048;-50
2023/02/14 11:48:27;;;;;;;11.57;8.48;;;;;;;;;;10405917;28;20038;-52
2023/02/14 11:53:35;;;;;;;11.43;8.77;;;;;;;;;;10409909;28;20753;-49
2023/02/14 11:58:43;;;;;;;11.80;8.30;;;;;;;;;;10408190;28;20057;-53
2023/02/14 12:03:47;;;;;;;14.83;8.77;;;;;;;;;;10395095;28;20033;-51
2023/02/14 12:08:47;;;;;;;13.88;8.75;;;;;;;;;;10397554;28;20040;-49
2023/02/14 12:13:55;;;;;;;11.27;8.90;;;;;;;;;;10407799;28;20465;-52
2023/02/14 12:19:02;;;;;;;14.27;9.10;;;;;;;;;;10398349;28;20413;-51
2023/02/14 12:24:31;;;;;;;11.07;8.50;;;;;;;;;;10407467;28;20029;-49
2023/02/14 12:29:47;;;;;;;13.55;8.65;;;;;;;;;;10403084;28;20029;-52
2023/02/14 12:34:49;;;;;;;15.40;9.32;;;;;;;;;;10399996;28;20095;-51
2023/02/14 12:40:04;;;;;;;12.93;8.57;;;;;;;;;;10400438;28;20135;-50
2023/02/14 12:45:27;;;;;;;14.10;8.18;;;;;;;;;;10403056;28;20043;-57
2023/02/14 12:51:02;;;;;;;14.73;8.10;;;;;;;;;;10405261;28;20073;-52
2023/02/14 12:56:13;;;;;;;14.60;7.45;;;;;;;;;;10409234;28;20076;-55
2023/02/14 13:01:31;;;;;;;14.02;9.25;;;;;;;;;;10398412;28;20029;-57
2023/02/14 13:06:37;;;;;;;15.73;8.45;;;;;;;;;;10395903;28;20030;-52
2023/02/14 13:12:39;;;;;;;14.48;8.65;;;;;;;;;;10395666;28;20033;-57
2023/02/14 13:17:43;;;;;;;14.35;8.75;;;;;;;;;;10404528;28;20033;-50
2023/02/14 13:22:45;;;;;;;15.23;8.70;;;;;;;;;;10399249;28;20508;-49
2023/02/14 13:27:45;;;;;;;15.07;8.40;;;;;;;;;;10398470;28;20080;-49
2023/02/14 13:32:49;;;;;;;15.80;8.80;;;;;;;;;;10402278;28;20026;-51
2023/02/14 13:38:02;;;;;;;14.25;9.10;;;;;;;;;;10399403;28;20092;-54
2023/02/14 13:43:03;;;;;;;13.05;7.57;;;;;;;;;;10407725;28;20060;-52
2023/02/14 13:48:27;;;;;;;15.27;8.85;;;;;;;;;;10406476;28;20024;-51
2023/02/14 13:53:32;;;;;;;14.40;9.15;;;;;;;;;;10406482;28;20030;-57
2023/02/14 13:58:34;;;;;;;12.77;8.40;;;;;;;;;;10406868;28;20034;-52
2023/02/14 14:03:45;;;;;;;16.40;8.18;;;;;;;;;;10404512;28;20606;-56
2023/02/14 14:08:49;;;;;;;17.60;9.07;;;;;;;;;;10405805;28;20026;-58
2023/02/14 14:14:00;;;;;;;16.38;8.65;;;;;;;;;;10405531;28;20029;-57
2023/02/14 14:19:15;;;;;;;17.33;8.85;;;;;;;;;;10408810;28;20025;-54
2023/02/14 14:24:21;;;;;;;15.48;8.25;;;;;;;;;;10413780;28;20100;-53
2023/02/14 14:29:37;;;;;;;13.05;8.75;;;;;;;;;;10396601;28;20390;-58
2023/02/14 14:34:50;;;;;;;12.43;8.85;;;;;;;;;;10389698;28;20393;-56
2023/02/14 14:39:56;;;;;;;12.35;8.32;;;;;;;;;;10393376;28;20116;-59
2023/02/14 14:45:01;;;;;;;15.60;8.23;;;;;;;;;;10405514;28;20112;-58
2023/02/14 14:50:12;;;;;;;16.00;7.90;;;;;;;;;;10409778;28;20030;-57
2023/02/14 14:55:28;;;;;;;10.02;7.25;;;;;;;;;;10396131;28;20022;-57
2023/02/14 15:00:41;;;;;;;13.75;7.45;;;;;;;;;;10384810;28;20109;-58
2023/02/14 15:05:49;;;;;;;12.88;7.57;;;;;;;;;;10391249;28;20044;-58
2023/02/14 15:16:47;;;;;;;13.35;7.65;;;;;;;;;;10406714;28;20041;-55
2023/02/14 15:21:47;;;;;;;12.73;7.88;;;;;;;;;;10399991;28;20032;-52
2023/02/14 15:26:48;;;;;;;9.68;7.00;;;;;;;;;;10404082;28;20033;-50
2023/02/14 15:31:49;;;;;;;9.25;6.80;;;;;;;;;;10404068;28;20035;-52
2023/02/14 15:36:55;;;;;;;8.57;6.97;;;;;;;;;;10426799;28;20497;-51
2023/02/14 15:41:56;;;;;;;9.77;6.80;;;;;;;;;;10410802;28;20112;-50
2023/02/14 15:47:00;;;;;;;9.30;6.70;;;;;;;;;;10411221;28;20107;-52
2023/02/14 15:52:06;;;;;;;12.05;7.05;;;;;;;;;;10411258;28;20077;-51
2023/02/14 15:57:22;;;;;;;9.45;6.70;;;;;;;;;;10380060;28;20488;-50
2023/02/14 16:02:30;;;;;;;9.05;6.50;;;;;;;;;;10393102;28;20033;-54
2023/02/14 16:07:30;;;;;;;12.23;7.40;;;;;;;;;;10401839;28;20030;-60
2023/02/14 16:12:35;;;;;;;9.68;6.45;;;;;;;;;;10410191;28;20397;-57
2023/02/14 16:17:35;;;;;;;8.38;6.70;;;;;;;;;;10397385;28;20611;-59
2023/02/14 16:22:36;;;;;;;11.27;6.60;;;;;;;;;;10396858;28;20030;-60
2023/02/14 16:27:36;;;;;;;10.10;6.90;;;;;;;;;;10386148;28;20034;-58
2023/02/14 16:32:37;;;;;;;8.57;7.40;;;;;;;;;;10385317;28;20037;-56
2023/02/14 16:37:38;;;;;;;9.52;6.65;;;;;;;;;;10379855;28;20112;-59
2023/02/14 16:42:39;;;;;;;12.05;6.18;;;;;;;;;;10405026;28;20373;-57
2023/02/14 16:47:39;;;;;;;9.60;6.78;;;;;;;;;;10396809;28;20101;-59
2023/02/14 16:52:42;;;;;;;12.55;6.57;;;;;;;;;;10379176;28;20026;-59
2023/02/14 16:57:48;;;;;;;8.80;6.85;;;;;;;;;;10380397;28;20394;-59
2023/02/14 17:02:49;;;;;;;9.57;6.15;;;;;;;;;;10378017;28;20029;-58
2023/02/14 17:07:50;;;;;;;14.90;6.47;;;;;;;;;;10381881;28;20061;-59
2023/02/14 17:12:51;;;;;;;8.68;6.65;;;;;;;;;;10389081;28;20036;-50
2023/02/14 17:18:01;;;;;;;11.43;6.28;;;;;;;;;;10381566;28;20037;-55
2023/02/14 17:23:05;;;;;;;10.48;6.60;;;;;;;;;;10379006;28;20068;-54
2023/02/14 17:28:06;;;;;;;13.88;6.55;;;;;;;;;;10380651;28;20412;-55
2023/02/14 17:33:07;;;;;;;10.55;6.53;;;;;;;;;;10378460;28;20033;-51
2023/02/14 17:38:08;;;;;;;12.30;7.60;;;;;;;;;;10391542;28;20107;-51
2023/02/14 17:43:08;;;;;;;11.77;7.22;;;;;;;;;;10391601;28;20409;-56
2023/02/14 17:48:09;;;;;;;11.85;7.57;;;;;;;;;;10386526;28;20030;-50
2023/02/14 17:53:11;;;;;;;12.50;7.90;;;;;;;;;;10406946;28;20465;-56
2023/02/14 17:58:11;;;;;;;16.58;8.13;;;;;;;;;;10394444;28;20026;-56
2023/02/14 18:03:12;;;;;;;11.68;7.25;;;;;;;;;;10396283;28;20028;-51
2023/02/14 18:08:13;;;;;;;14.82;7.82;;;;;;;;;;10389006;28;20037;-50
2023/02/14 18:13:13;;;;;;;14.70;8.65;;;;;;;;;;10396691;28;20025;-50
2023/02/14 18:18:18;;;;;;;15.05;7.88;;;;;;;;;;10402901;28;20034;-54
2023/02/14 18:23:20;;;;;;;15.55;7.95;;;;;;;;;;10379996;28;20032;-52
2023/02/14 18:28:21;;;;;;;27.55;8.57;;;;;;;;;;10393425;28;20045;-52
2023/02/14 18:33:22;;;;;;;22.13;8.73;;;;;;;;;;10400168;28;20064;-55
2023/02/14 18:38:23;;;;;;;16.92;9.00;;;;;;;;;;10385005;28;20465;-51
2023/02/14 18:43:23;;;;;;;17.08;8.30;;;;;;;;;;10398880;28;20053;-52
2023/02/14 18:48:24;;;;;;;22.77;8.98;;;;;;;;;;10399884;28;20060;-51
2023/02/14 18:53:24;;;;;;;17.23;8.45;;;;;;;;;;10400595;28;20037;-53
2023/02/14 18:58:25;;;;;;;18.85;8.43;;;;;;;;;;10404614;28;20034;-52
2023/02/14 19:03:26;;;;;;;19.63;9.30;;;;;;;;;;10400328;28;20104;-55
2023/02/14 19:08:33;;;;;;;17.08;9.60;;;;;;;;;;10412438;28;20095;-58
2023/02/14 19:13:33;;;;;;;13.88;8.68;;;;;;;;;;10411539;28;20397;-53
2023/02/14 19:18:34;;;;;;;18.27;9.07;;;;;;;;;;10411812;28;20033;-54
2023/02/14 19:23:34;;;;;;;12.82;8.30;;;;;;;;;;10411689;28;20029;-55
2023/02/14 19:28:35;;;;;;;14.15;8.70;;;;;;;;;;10411475;28;20068;-51
2023/02/14 19:33:41;;;;;;;17.38;8.57;;;;;;;;;;10411749;28;20036;-56
2023/02/14 19:38:44;;;;;;;17.23;8.63;;;;;;;;;;10406384;28;20045;-60
2023/02/14 19:43:46;;;;;;;15.07;7.78;;;;;;;;;;10403611;28;20121;-59
2023/02/14 19:48:47;;;;;;;15.63;7.88;;;;;;;;;;10408401;28;20095;-53
2023/02/14 19:53:48;;;;;;;13.52;7.80;;;;;;;;;;10408799;28;20477;-53
2023/02/14 19:58:51;;;;;;;13.45;7.90;;;;;;;;;;10409971;28;20041;-55
2023/02/14 20:03:52;;;;;;;15.10;8.23;;;;;;;;;;10399937;28;20045;-56
2023/02/14 20:08:53;;;;;;;12.70;7.78;;;;;;;;;;10406283;28;20030;-55
2023/02/14 20:13:54;;;;;;;15.48;7.75;;;;;;;;;;10403237;28;20075;-59
2023/02/14 20:18:55;;;;;;;13.73;7.82;;;;;;;;;;10409515;28;20030;-56
2023/02/14 20:24:01;;;;;;;14.82;7.40;;;;;;;;;;10407682;28;20026;-54
2023/02/14 20:29:03;;;;;;;17.70;7.90;;;;;;;;;;10424599;28;20029;-52
2023/02/14 20:34:04;;;;;;;12.20;7.50;;;;;;;;;;10409088;28;20442;-58
2023/02/14 20:39:07;;;;;;;10.68;7.63;;;;;;;;;;10408695;28;20136;-56
2023/02/14 20:44:10;;;;;;;11.45;7.28;;;;;;;;;;10419707;28;20034;-58
2023/02/14 20:49:11;;;;;;;12.23;7.50;;;;;;;;;;10407736;28;20120;-56
2023/02/14 20:54:13;;;;;;;11.60;7.22;;;;;;;;;;10407013;28;20052;-58
2023/02/14 20:59:14;;;;;;;13.63;7.43;;;;;;;;;;10403869;28;20478;-55
2023/02/14 21:04:15;;;;;;;12.00;7.28;;;;;;;;;;10401851;28;20030;-55
2023/02/14 21:09:17;;;;;;;10.15;7.00;;;;;;;;;;10400758;28;20025;-57
2023/02/14 21:14:19;;;;;;;10.25;7.43;;;;;;;;;;10400179;28;20034;-59
2023/02/14 21:19:20;;;;;;;13.48;8.07;;;;;;;;;;10401423;28;20129;-59
2023/02/14 21:24:20;;;;;;;11.93;8.10;;;;;;;;;;10405189;28;20033;-59
2023/02/14 21:29:21;;;;;;;11.73;7.75;;;;;;;;;;10394826;28;20037;-54
2023/02/14 21:34:22;;;;;;;11.73;7.45;;;;;;;;;;10395136;28;20040;-53
2023/02/14 21:39:26;;;;;;;9.77;7.22;;;;;;;;;;10399164;28;20053;-58
2023/02/14 21:55:05;;;;;;;13.70;7.63;;;;;;;;;;10407735;28;20017;-59
2023/02/14 22:00:07;;;;;;;18.88;7.68;;;;;;;;;;10402170;28;20034;-59
2023/02/14 22:05:07;;;;;;;13.07;7.38;;;;;;;;;;10405534;28;20115;-53
2023/02/14 22:10:08;;;;;;;16.80;8.15;;;;;;;;;;10401791;28;20029;-55
2023/02/14 22:15:09;;;;;;;10.57;6.90;;;;;;;;;;10405607;28;20021;-51
2023/02/14 22:20:10;;;;;;;10.07;7.88;;;;;;;;;;10405743;28;20477;-56
2023/02/14 22:25:10;;;;;;;12.32;8.18;;;;;;;;;;10406456;28;20492;-59
2023/02/14 22:30:11;;;;;;;13.45;7.88;;;;;;;;;;10406055;28;20603;-56
2023/02/14 22:35:12;;;;;;;10.18;7.70;;;;;;;;;;10402685;28;20095;-55
2023/02/14 22:40:12;;;;;;;16.02;7.78;;;;;;;;;;10400210;28;20539;-55
2023/02/14 22:45:13;;;;;;;15.35;9.27;;;;;;;;;;10407640;28;20492;-53
2023/02/14 22:50:14;;;;;;;15.30;10.43;;;;;;;;;;10409788;28;20037;-53
2023/02/14 22:55:14;;;;;;;16.83;12.05;;;;;;;;;;10383604;28;20144;-52
2023/02/14 23:00:15;;;;;;;20.75;12.10;;;;;;;;;;10382511;28;20041;-55
2023/02/14 23:05:16;;;;;;;25.73;12.40;;;;;;;;;;10408783;28;20025;-55
2023/02/14 23:10:17;;;;;;;17.42;11.35;;;;;;;;;;10406517;28;20036;-58
2023/02/14 23:25:56;;;;;;;;;;;;;;;;;;10413611;28;20037;-51
2023/02/14 23:31:01;;;;;;;20.80;12.40;;;;;;;;;;10410387;28;20368;-52
2023/02/14 23:36:03;;;;;;;18.30;11.30;;;;;;;;;;10406125;28;20041;-52
2023/02/14 23:46:30;;;;;;;15.75;10.75;;;;;;;;;;10412020;28;20393;-55
2023/02/14 23:51:33;;;;;;;15.27;11.20;;;;;;;;;;10410227;28;20153;-53
2023/02/14 23:56:34;;;;;;;13.98;10.20;;;;;;;;;;10410437;28;20021;-51
